createdAt,value
2023-02-21T00:02:37.043Z,51.35
2023-02-21T00:05:22.515Z,62.03
2023-02-21T00:08:08.014Z,59.58
2023-02-21T00:10:53.685Z,62.08
2023-02-21T00:13:39.162Z,75.97
2023-02-21T00:16:24.335Z,50.22
2023-02-21T00:19:09.794Z,65.85
2023-02-21T00:21:55.057Z,61.20
2023-02-21T00:24:40.682Z,67.90
2023-02-21T00:27:26.030Z,45.03
2023-02-21T00:30:11.234Z,68.95
2023-02-21T00:32:56.545Z,64.50
2023-02-21T00:35:41.973Z,57.97
2023-02-21T00:38:27.257Z,56.55
2023-02-21T00:41:12.871Z,56.40
2023-02-21T00:43:58.566Z,55.65
2023-02-21T00:46:44.285Z,63.08
2023-02-21T00:49:29.771Z,54.30
2023-02-21T00:52:15.340Z,67.25
2023-02-21T00:55:00.729Z,61.23
2023-02-21T00:57:46.313Z,58.65
2023-02-21T01:00:38.282Z,57.05
2023-02-21T01:03:24.145Z,61.63
2023-02-21T01:06:11.370Z,50.28
2023-02-21T01:09:01.397Z,60.03
2023-02-21T01:11:47.378Z,67.80
2023-02-21T01:14:32.562Z,72.13
2023-02-21T01:17:18.181Z,77.28
2023-02-21T01:20:03.404Z,66.55
2023-02-21T01:22:48.853Z,64.37
2023-02-21T01:25:34.527Z,78.57
2023-02-21T01:28:19.743Z,72.75
2023-02-21T01:31:04.799Z,75.28
2023-02-21T01:33:58.281Z,83.38
2023-02-21T01:36:44.125Z,82.80
2023-02-21T01:39:30.024Z,74.10
2023-02-21T01:42:15.557Z,83.35
2023-02-21T01:45:06.080Z,82.00
2023-02-21T01:47:52.412Z,81.85
2023-02-21T01:50:42.076Z,84.00
2023-02-21T01:53:32.018Z,77.00
2023-02-21T01:56:20.038Z,83.18
2023-02-21T01:59:07.115Z,93.60
2023-02-21T02:01:44.789Z,102.95
2023-02-21T02:04:29.908Z,88.37
2023-02-21T02:07:15.138Z,87.50
2023-02-21T02:10:00.328Z,99.80
2023-02-21T02:12:26.783Z,97.45
2023-02-21T02:15:24.023Z,89.63
2023-02-21T02:18:00.597Z,89.70
2023-02-21T02:20:53.692Z,90.28
2023-02-21T02:23:35.695Z,102.25
2023-02-21T02:26:23.961Z,93.00
2023-02-21T02:29:24.780Z,110.72
2023-02-21T02:32:00.526Z,88.53
2023-02-21T02:34:47.320Z,115.30
2023-02-21T02:40:30.305Z,130.10
2023-02-21T02:43:15.654Z,115.10
2023-02-21T02:46:17.984Z,111.80
2023-02-21T02:48:50.801Z,117.30
2023-02-21T02:51:18.612Z,117.55
2023-02-21T02:53:45.423Z,102.82
2023-02-21T02:56:16.305Z,113.88
2023-02-21T02:59:09.657Z,117.93
2023-02-21T03:02:33.604Z,108.40
2023-02-21T03:05:16.581Z,107.72
2023-02-21T03:08:14.153Z,134.45
2023-02-21T03:10:49.745Z,104.40
2023-02-21T03:13:31.516Z,102.80
2023-02-21T03:16:10.406Z,115.10
2023-02-21T03:18:42.470Z,119.45
2023-02-21T03:21:15.412Z,125.63
2023-02-21T03:23:45.271Z,112.43
2023-02-21T03:26:14.268Z,131.43
2023-02-21T03:28:41.645Z,121.25
2023-02-21T03:31:10.628Z,111.78
2023-02-21T03:33:37.594Z,124.82
2023-02-21T03:36:06.218Z,139.45
2023-02-21T03:38:34.304Z,137.93
2023-02-21T03:41:01.781Z,139.70
2023-02-21T03:43:28.405Z,113.70
2023-02-21T03:45:55.230Z,123.10
2023-02-21T03:48:31.574Z,118.13
2023-02-21T03:50:59.413Z,135.37
2023-02-21T03:53:26.240Z,120.25
2023-02-21T03:55:53.198Z,120.75
2023-02-21T03:58:19.782Z,112.53
2023-02-21T04:00:46.469Z,121.68
2023-02-21T04:03:13.460Z,131.37
2023-02-21T04:05:40.298Z,101.38
2023-02-21T04:08:07.311Z,124.75
2023-02-21T04:10:37.888Z,123.38
2023-02-21T04:13:05.057Z,124.10
2023-02-21T04:15:32.143Z,117.90
2023-02-21T04:17:59.020Z,124.60
2023-02-21T04:20:26.059Z,134.55
2023-02-21T04:23:02.881Z,104.22
2023-02-21T04:25:30.608Z,124.45
2023-02-21T04:27:57.287Z,109.03
2023-02-21T04:30:25.171Z,95.25
2023-02-21T04:32:51.843Z,101.30
2023-02-21T04:35:18.796Z,97.25
2023-02-21T04:37:46.339Z,100.53
2023-02-21T04:40:13.314Z,113.83
2023-02-21T04:42:40.258Z,92.32
2023-02-21T04:45:07.337Z,107.15
2023-02-21T04:47:33.922Z,82.63
2023-02-21T04:50:00.877Z,101.72
2023-02-21T04:52:27.520Z,84.20
2023-02-21T04:54:54.930Z,121.97
2023-02-21T04:57:21.939Z,102.82
2023-02-21T04:59:48.585Z,100.82
2023-02-21T05:02:15.608Z,118.55
2023-02-21T05:04:43.312Z,95.37
2023-02-21T05:07:10.208Z,113.05
2023-02-21T05:09:36.842Z,99.20
2023-02-21T05:12:03.812Z,116.47
2023-02-21T05:14:30.348Z,112.80
2023-02-21T05:16:57.031Z,104.93
2023-02-21T05:19:29.677Z,105.30
2023-02-21T05:21:58.476Z,108.72
2023-02-21T05:24:27.084Z,118.53
2023-02-21T05:26:55.416Z,103.72
2023-02-21T05:29:22.401Z,114.33
2023-02-21T05:31:49.215Z,93.82
2023-02-21T05:34:17.789Z,108.30
2023-02-21T05:36:44.530Z,108.82
2023-02-21T05:39:11.537Z,113.65
2023-02-21T05:41:38.179Z,122.37
2023-02-21T05:44:05.330Z,109.20
2023-02-21T05:46:34.518Z,113.20
2023-02-21T05:49:04.469Z,122.10
2023-02-21T05:51:37.435Z,99.25
2023-02-21T05:54:05.793Z,118.83
2023-02-21T05:56:39.294Z,122.15
2023-02-21T05:59:06.224Z,138.82
2023-02-21T06:01:32.967Z,129.02
2023-02-21T06:03:59.820Z,140.02
2023-02-21T06:06:26.865Z,126.37
2023-02-21T06:08:53.489Z,123.03
2023-02-21T06:11:27.116Z,108.57
2023-02-21T06:13:56.487Z,112.90
2023-02-21T06:16:23.948Z,119.72
2023-02-21T06:18:55.438Z,115.97
2023-02-21T06:21:22.325Z,129.88
2023-02-21T06:23:49.503Z,128.43
2023-02-21T06:26:20.175Z,103.00
2023-02-21T06:28:47.795Z,98.03
2023-02-21T06:31:15.414Z,98.60
2023-02-21T06:33:42.276Z,89.30
2023-02-21T06:36:13.698Z,93.05
2023-02-21T06:38:40.370Z,100.15
2023-02-21T06:41:08.441Z,111.05
2023-02-21T06:43:38.381Z,106.87
2023-02-21T06:46:05.296Z,107.72
2023-02-21T06:48:32.185Z,92.55
2023-02-21T06:50:59.092Z,103.63
2023-02-21T06:53:26.193Z,108.57
2023-02-21T06:55:53.420Z,96.33
2023-02-21T06:58:20.138Z,116.47
2023-02-21T07:00:46.793Z,92.55
2023-02-21T07:03:13.472Z,97.15
2023-02-21T07:05:40.039Z,109.60
2023-02-21T07:08:06.753Z,89.30
2023-02-21T07:10:33.406Z,103.32
2023-02-21T07:13:00.021Z,100.22
2023-02-21T07:15:27.405Z,87.90
2023-02-21T07:17:54.147Z,91.28
2023-02-21T07:20:20.985Z,89.07
2023-02-21T07:22:50.974Z,76.80
2023-02-21T07:25:19.816Z,71.07
2023-02-21T07:27:50.347Z,95.40
2023-02-21T07:30:17.411Z,78.43
2023-02-21T07:35:11.097Z,89.03
2023-02-21T07:37:38.547Z,85.65
2023-02-21T07:40:08.654Z,84.25
2023-02-21T07:42:35.555Z,92.25
2023-02-21T07:45:02.244Z,73.80
2023-02-21T07:47:29.351Z,89.55
2023-02-21T07:49:56.384Z,97.53
2023-02-21T07:52:23.369Z,85.50
2023-02-21T07:54:49.991Z,86.97
2023-02-21T07:57:17.344Z,97.60
2023-02-21T07:59:44.229Z,83.22
2023-02-21T08:02:13.312Z,69.43
2023-02-21T08:04:41.047Z,89.03
2023-02-21T08:07:09.014Z,83.13
2023-02-21T08:09:37.029Z,79.17
2023-02-21T08:12:03.932Z,95.75
2023-02-21T08:14:30.689Z,92.28
2023-02-21T08:16:57.539Z,78.20
2023-02-21T08:19:24.340Z,87.28
2023-02-21T08:21:51.427Z,81.53
2023-02-21T08:24:18.964Z,84.38
2023-02-21T08:26:46.703Z,78.80
2023-02-21T08:29:14.625Z,76.90
2023-02-21T08:31:42.534Z,89.32
2023-02-21T08:34:09.327Z,67.20
2023-02-21T08:36:38.118Z,74.97
2023-02-21T08:39:06.441Z,62.38
2023-02-21T08:41:44.765Z,76.45
2023-02-21T08:44:16.295Z,69.20
2023-02-21T08:46:43.947Z,76.17
2023-02-21T08:49:11.140Z,62.78
2023-02-21T08:51:38.064Z,77.85
2023-02-21T08:54:04.909Z,64.63
2023-02-21T08:56:31.695Z,74.47
2023-02-21T08:58:58.967Z,67.40
2023-02-21T09:01:32.900Z,70.15
2023-02-21T09:04:00.121Z,59.42
2023-02-21T09:06:26.815Z,65.30
2023-02-21T09:08:53.593Z,71.72
2023-02-21T09:11:20.388Z,65.93
2023-02-21T09:13:47.122Z,65.75
2023-02-21T09:16:13.958Z,68.55
2023-02-21T09:18:40.621Z,74.47
2023-02-21T09:21:07.646Z,49.67
2023-02-21T09:23:34.286Z,58.07
2023-02-21T09:26:01.663Z,55.17
2023-02-21T09:28:29.521Z,58.90
2023-02-21T09:30:56.246Z,47.85
2023-02-21T09:33:24.890Z,50.05
2023-02-21T09:35:51.982Z,44.47
2023-02-21T09:38:18.677Z,53.55
2023-02-21T09:40:55.026Z,39.63
2023-02-21T09:43:38.733Z,51.85
2023-02-21T09:46:18.267Z,40.78
2023-02-21T09:48:45.613Z,33.30
2023-02-21T09:51:14.329Z,40.05
2023-02-21T09:53:46.164Z,35.97
2023-02-21T09:56:28.417Z,44.38
2023-02-21T09:58:56.948Z,40.08
2023-02-21T10:01:29.621Z,34.90
2023-02-21T10:04:15.338Z,30.85
2023-02-21T10:06:53.202Z,53.97
2023-02-21T10:09:31.930Z,30.45
2023-02-21T10:12:18.271Z,33.15
2023-02-21T10:15:05.370Z,37.97
2023-02-21T10:17:36.992Z,28.10
2023-02-21T10:20:11.722Z,29.38
2023-02-21T10:22:40.563Z,31.23
2023-02-21T10:25:22.226Z,31.42
2023-02-21T10:27:51.189Z,23.87
2023-02-21T10:30:40.976Z,25.98
2023-02-21T10:33:08.540Z,25.85
2023-02-21T10:35:37.847Z,34.25
2023-02-21T10:38:09.806Z,27.25
2023-02-21T10:40:38.212Z,21.13
2023-02-21T10:43:17.107Z,27.73
2023-02-21T10:46:07.474Z,34.10
2023-02-21T10:48:39.156Z,27.75
2023-02-21T10:51:18.719Z,23.67
2023-02-21T10:53:47.557Z,26.63
2023-02-21T10:56:20.395Z,31.85
2023-02-21T10:58:52.259Z,36.15
2023-02-21T11:01:22.912Z,27.13
2023-02-21T11:03:52.659Z,29.45
2023-02-21T11:06:35.572Z,36.17
2023-02-21T11:09:22.900Z,28.50
2023-02-21T11:12:19.714Z,29.30
2023-02-21T11:15:06.162Z,27.73
2023-02-21T11:17:33.543Z,38.08
2023-02-21T11:20:23.619Z,29.43
2023-02-21T11:22:50.875Z,33.47
2023-02-21T11:25:25.470Z,28.75
2023-02-21T11:27:59.130Z,48.20
2023-02-21T11:30:26.315Z,23.98
2023-02-21T11:32:57.228Z,25.83
2023-02-21T11:35:34.554Z,27.75
2023-02-21T11:38:04.467Z,29.50
2023-02-21T11:40:33.006Z,30.23
2023-02-21T11:43:18.539Z,19.33
2023-02-21T11:45:59.934Z,33.30
2023-02-21T11:48:33.008Z,29.75
2023-02-21T11:51:06.126Z,21.10
2023-02-21T11:53:40.569Z,24.90
2023-02-21T11:56:39.665Z,20.88
2023-02-21T11:59:12.308Z,27.03
2023-02-21T12:02:17.997Z,27.20
2023-02-21T12:05:15.706Z,21.52
2023-02-21T12:08:18.498Z,27.17
2023-02-21T12:11:22.793Z,27.92
2023-02-21T12:14:17.595Z,24.97
2023-02-21T12:17:08.966Z,31.38
2023-02-21T12:19:55.649Z,36.25
2023-02-21T12:22:42.517Z,34.90
2023-02-21T12:25:09.335Z,33.90
2023-02-21T12:27:50.968Z,32.00
2023-02-21T12:30:27.370Z,24.95
2023-02-21T12:33:20.088Z,28.77
2023-02-21T12:36:15.710Z,31.35
2023-02-21T12:38:51.818Z,32.10
2023-02-21T12:41:45.833Z,35.90
2023-02-21T12:44:22.872Z,25.85
2023-02-21T12:47:04.432Z,35.55
2023-02-21T12:49:49.847Z,34.70
2023-02-21T12:52:36.442Z,32.22
2023-02-21T12:55:12.349Z,35.90
2023-02-21T12:57:38.934Z,30.77
2023-02-21T13:00:17.909Z,46.42
2023-02-21T13:02:55.378Z,44.33
2023-02-21T13:05:40.229Z,44.92
2023-02-21T13:08:27.885Z,44.20
2023-02-21T13:11:29.626Z,43.28
2023-02-21T13:13:58.407Z,39.00
2023-02-21T13:16:25.668Z,37.67
2023-02-21T13:18:59.597Z,30.98
2023-02-21T13:21:45.598Z,49.77
2023-02-21T13:24:23.688Z,45.80
2023-02-21T13:27:22.051Z,48.53
2023-02-21T13:29:50.098Z,46.17
2023-02-21T13:32:22.332Z,47.67
2023-02-21T13:34:49.312Z,35.93
2023-02-21T13:37:23.023Z,36.33
2023-02-21T13:39:54.315Z,44.53
2023-02-21T13:42:25.028Z,40.05
2023-02-21T13:45:12.786Z,45.53
2023-02-21T13:47:58.072Z,45.37
2023-02-21T13:50:40.178Z,37.90
2023-02-21T13:53:16.484Z,58.72
2023-02-21T13:56:22.083Z,40.53
2023-02-21T13:58:49.464Z,51.70
2023-02-21T14:01:41.528Z,51.03
2023-02-21T14:04:45.861Z,63.80
2023-02-21T14:07:12.502Z,56.50
2023-02-21T14:09:41.751Z,72.40
2023-02-21T14:12:12.708Z,68.97
2023-02-21T14:14:40.379Z,72.23
2023-02-21T14:17:10.927Z,86.97
2023-02-21T14:19:43.880Z,82.00
2023-02-21T14:22:16.879Z,85.07
2023-02-21T14:24:48.406Z,70.13
2023-02-21T14:27:14.913Z,77.37
2023-02-21T14:30:12.617Z,63.42
2023-02-21T14:32:47.150Z,68.82
2023-02-21T14:35:26.068Z,60.72
2023-02-21T14:38:01.611Z,64.35
2023-02-21T14:40:47.189Z,55.43
2023-02-21T14:43:19.510Z,54.78
2023-02-21T14:46:15.059Z,56.72
2023-02-21T14:48:50.637Z,62.65
2023-02-21T14:51:29.546Z,58.63
2023-02-21T14:54:37.261Z,46.60
2023-02-21T14:57:24.170Z,48.75
2023-02-21T15:00:13.749Z,45.78
2023-02-21T15:02:54.617Z,44.22
2023-02-21T15:05:27.822Z,51.97
2023-02-21T15:08:00.610Z,48.43
2023-02-21T15:10:30.201Z,70.47
2023-02-21T15:13:02.984Z,48.80
2023-02-21T15:15:33.284Z,52.85
2023-02-21T15:18:10.707Z,62.90
2023-02-21T15:20:40.148Z,55.03
2023-02-21T15:23:09.781Z,55.50
2023-02-21T15:25:37.125Z,80.68
2023-02-21T15:28:07.621Z,78.82
2023-02-21T15:30:40.600Z,61.42
2023-02-21T15:33:19.997Z,62.83
2023-02-21T15:35:50.087Z,74.50
2023-02-21T15:38:22.887Z,70.15
2023-02-21T15:40:52.352Z,74.18
2023-02-21T15:43:31.619Z,74.47
2023-02-21T15:46:01.990Z,77.83
2023-02-21T15:48:29.287Z,72.43
2023-02-21T15:51:05.471Z,74.32
2023-02-21T15:53:33.039Z,66.40
2023-02-21T15:56:19.401Z,69.75
2023-02-21T15:59:09.097Z,60.30
2023-02-21T16:01:36.008Z,79.25
2023-02-21T16:04:18.664Z,64.15
2023-02-21T16:06:54.615Z,56.30
2023-02-21T16:09:30.184Z,67.55
2023-02-21T16:12:08.274Z,63.57
2023-02-21T16:14:56.565Z,55.30
2023-02-21T16:17:29.824Z,53.75
2023-02-21T16:20:07.069Z,54.10
2023-02-21T16:22:59.713Z,52.63
2023-02-21T16:25:25.909Z,46.27
2023-02-21T16:27:58.100Z,63.17
2023-02-21T16:30:27.799Z,43.83
2023-02-21T16:33:00.145Z,60.30
2023-02-21T16:35:27.482Z,65.35
2023-02-21T16:37:59.493Z,55.47
2023-02-21T16:40:34.562Z,64.10
2023-02-21T16:43:02.818Z,57.85
2023-02-21T16:45:30.812Z,57.20
2023-02-21T16:48:06.191Z,47.90
2023-02-21T16:50:38.146Z,51.20
2023-02-21T16:53:05.589Z,55.30
2023-02-21T16:55:32.971Z,47.90
2023-02-21T16:58:24.011Z,54.45
2023-02-21T17:00:53.116Z,55.88
2023-02-21T17:03:20.335Z,49.17
2023-02-21T17:05:47.832Z,53.05
2023-02-21T17:08:14.625Z,58.28
2023-02-21T17:10:41.543Z,50.33
2023-02-21T17:13:08.247Z,54.90
2023-02-21T17:15:35.033Z,49.50
2023-02-21T17:18:02.608Z,57.13
2023-02-21T17:20:29.729Z,51.15
2023-02-21T17:22:58.578Z,44.38
2023-02-21T17:25:25.783Z,46.42
2023-02-21T17:27:52.903Z,51.43
2023-02-21T17:30:21.902Z,40.80
2023-02-21T17:32:49.038Z,47.72
2023-02-21T17:35:19.257Z,43.08
2023-02-21T17:37:47.634Z,45.53
2023-02-21T17:40:14.689Z,40.33
2023-02-21T17:42:41.673Z,51.00
2023-02-21T17:45:08.955Z,55.85
2023-02-21T17:47:36.796Z,53.25
2023-02-21T17:50:04.956Z,62.13
2023-02-21T17:52:32.550Z,61.97
2023-02-21T17:54:59.288Z,62.17
2023-02-21T17:57:26.008Z,57.72
2023-02-21T17:59:52.675Z,58.17
2023-02-21T18:02:20.856Z,56.05
2023-02-21T18:04:48.993Z,67.23
2023-02-21T18:07:15.797Z,64.53
2023-02-21T18:09:45.595Z,65.35
2023-02-21T18:12:12.316Z,71.95
2023-02-21T18:14:38.971Z,67.50
2023-02-21T18:17:05.615Z,70.23
2023-02-21T18:19:32.394Z,70.43
2023-02-21T18:21:59.085Z,69.32
2023-02-21T18:24:27.799Z,65.53
2023-02-21T18:26:54.448Z,69.90
2023-02-21T18:29:21.048Z,61.23
2023-02-21T18:31:54.644Z,54.40
2023-02-21T18:34:21.812Z,63.58
2023-02-21T18:36:51.443Z,59.45
2023-02-21T18:39:19.704Z,59.35
2023-02-21T18:41:47.465Z,59.90
2023-02-21T18:44:14.571Z,60.33
2023-02-21T18:46:46.021Z,62.65
2023-02-21T18:49:13.932Z,69.15
2023-02-21T18:51:40.533Z,65.78
2023-02-21T18:54:07.937Z,68.47
2023-02-21T18:56:34.669Z,58.15
2023-02-21T18:59:01.456Z,68.72
2023-02-21T19:01:28.461Z,65.28
2023-02-21T19:03:56.104Z,59.85
2023-02-21T19:06:25.045Z,67.47
2023-02-21T19:08:54.387Z,69.22
2023-02-21T19:11:21.103Z,67.72
2023-02-21T19:13:50.050Z,77.32
2023-02-21T19:16:19.692Z,77.70
2023-02-21T19:18:47.283Z,78.67
2023-02-21T19:21:14.370Z,83.75
2023-02-21T19:23:42.714Z,80.85
2023-02-21T19:26:09.450Z,82.78
2023-02-21T19:28:38.659Z,82.90
2023-02-21T19:31:05.529Z,99.13
2023-02-21T19:33:32.652Z,94.07
2023-02-21T19:36:02.312Z,84.28
2023-02-21T19:38:29.529Z,95.13
2023-02-21T19:40:56.205Z,98.88
2023-02-21T19:43:23.074Z,95.90
2023-02-21T19:45:51.957Z,101.20
2023-02-21T19:48:21.256Z,104.10
2023-02-21T19:50:48.376Z,90.65
2023-02-21T19:53:15.454Z,109.38
2023-02-21T19:55:42.363Z,102.43
2023-02-21T19:58:10.680Z,80.45
2023-02-21T20:00:40.076Z,87.93
2023-02-21T20:03:06.833Z,90.97
2023-02-21T20:05:33.533Z,87.15
2023-02-21T20:08:00.117Z,82.07
2023-02-21T20:10:26.753Z,86.55
2023-02-21T20:12:55.894Z,85.15
2023-02-21T20:15:22.840Z,79.30
2023-02-21T20:17:50.813Z,81.45
2023-02-21T20:20:17.585Z,89.63
2023-02-21T20:22:44.284Z,89.00
2023-02-21T20:25:10.964Z,81.82
2023-02-21T20:27:38.014Z,74.13
2023-02-21T20:30:06.196Z,70.68
2023-02-21T20:32:32.993Z,70.83
2023-02-21T20:34:59.897Z,73.47
2023-02-21T20:37:31.106Z,61.58
2023-02-21T20:39:58.523Z,69.22
2023-02-21T20:42:25.518Z,71.13
2023-02-21T20:44:52.230Z,58.00
2023-02-21T20:47:19.836Z,64.68
2023-02-21T20:49:47.129Z,63.05
2023-02-21T20:52:15.005Z,50.60
2023-02-21T20:54:42.500Z,58.13
2023-02-21T20:57:10.106Z,69.70
2023-02-21T20:59:39.255Z,70.70
2023-02-21T21:02:08.203Z,67.03
2023-02-21T21:04:38.414Z,63.08
2023-02-21T21:07:08.535Z,69.55
2023-02-21T21:09:37.747Z,70.17
2023-02-21T21:12:08.281Z,70.40
2023-02-21T21:14:39.702Z,84.35
2023-02-21T21:17:06.592Z,95.55
2023-02-21T21:19:34.579Z,83.85
2023-02-21T21:22:03.158Z,82.43
2023-02-21T21:24:31.958Z,85.78
2023-02-21T21:27:07.046Z,76.80
2023-02-21T21:29:36.552Z,78.72
2023-02-21T21:32:05.579Z,76.68
2023-02-21T21:34:33.480Z,73.53
2023-02-21T21:37:02.305Z,74.93
2023-02-21T21:39:28.996Z,75.40
2023-02-21T21:42:05.339Z,84.82
2023-02-21T21:44:32.944Z,69.78
2023-02-21T21:47:01.116Z,69.60
2023-02-21T21:49:31.060Z,72.53
2023-02-21T21:51:58.093Z,65.88
2023-02-21T21:54:26.911Z,65.93
2023-02-21T21:56:55.308Z,69.57
2023-02-21T21:59:27.068Z,60.47
2023-02-21T22:01:57.754Z,69.65
2023-02-21T22:04:28.686Z,63.58
2023-02-21T22:06:56.998Z,64.57
2023-02-21T22:09:25.839Z,70.30
2023-02-21T22:11:53.239Z,56.07
2023-02-21T22:14:22.855Z,62.47
2023-02-21T22:16:51.879Z,64.10
2023-02-21T22:19:21.392Z,54.60
2023-02-21T22:21:49.629Z,62.03
2023-02-21T22:24:20.868Z,61.93
2023-02-21T22:26:47.673Z,68.20
2023-02-21T22:29:16.565Z,56.08
2023-02-21T22:31:45.019Z,66.15
2023-02-21T22:34:23.453Z,58.33
2023-02-21T22:36:56.218Z,62.03
2023-02-21T22:39:24.775Z,58.13
2023-02-21T22:41:51.739Z,72.45
2023-02-21T22:44:19.005Z,66.70
2023-02-21T22:46:47.942Z,61.83
2023-02-21T22:49:17.695Z,66.90
2023-02-21T22:51:44.394Z,77.88
2023-02-21T22:54:14.566Z,64.95
2023-02-21T22:56:51.027Z,73.63
2023-02-21T22:59:20.073Z,75.47
2023-02-21T23:01:47.067Z,70.67
2023-02-21T23:04:25.355Z,75.65
2023-02-21T23:06:59.513Z,75.93
2023-02-21T23:09:28.864Z,69.00
2023-02-21T23:11:58.687Z,79.20
2023-02-21T23:14:26.594Z,73.50
2023-02-21T23:16:57.497Z,74.75
2023-02-21T23:19:25.761Z,82.57
2023-02-21T23:21:53.195Z,78.47
2023-02-21T23:24:22.432Z,67.43
2023-02-21T23:26:49.991Z,64.90
2023-02-21T23:29:24.190Z,69.57
2023-02-21T23:31:52.350Z,69.30
2023-02-21T23:34:19.832Z,69.57
2023-02-21T23:36:46.595Z,71.82
2023-02-21T23:39:15.282Z,75.67
2023-02-21T23:41:48.922Z,66.85
2023-02-21T23:44:16.308Z,70.32
2023-02-21T23:46:44.666Z,67.95
2023-02-21T23:49:15.663Z,68.13
2023-02-21T23:51:44.147Z,76.40
2023-02-21T23:54:11.894Z,65.47
2023-02-21T23:56:40.341Z,66.72
2023-02-21T23:59:07.239Z,61.83
